Belmont, New York
Current Conditions -  °F | °C
As of 11:56 AM on Monday 22 Dec 2014 (Local Time) from KELZ Reporting Station
Broken Clouds Broken Clouds  
Wind Chill: 23°   Ceiling: 1500
Heat Index: 32°   Visibility: 10mi
Dew Point: 23°   Wind: 12mph
Humidity: 69%   Direction: 140°SE
Pressure: 30.11"   Gusts: NA
Location:  42.22°N, 78.03°W
Report Text: KELZ 221656Z AUTO 14010KT 10SM BKN015 00/M05 A3011 RMK AO2 SLP222 T00001050
Loading
Personal Weather Stations






























Interactive Weather Map New forecast layout! Learn more

10-Day Weather Forecast

Advertisements
Track Severe Weather on mobile